SAS740 ESSA-EYVI
Flight info
| Callsign | SAS740 |
|---|---|
| Flight time | 1h 7m |
| Altitude | 27000 |
| Route | BABAP P156 RASEL/N0437F370 DCT ASKOR DCT OTNAV |
| Aircraft | A320/M-SDE3FGHIRWY/LB1 |
Departure
| Time | 2026-05-06 11:47 |
|---|---|
| Airport | Stockholm-Arlanda Airport (ESSA) |
Arrival
| Time | 2026-05-06 12:54 |
|---|---|
| Airport | Vilnius International Airport (EYVI) |
| Time | Latitude | Longitude | Altitude | Speed | Heading |
|---|---|---|---|---|---|
| 2026-05-06 11:17 | 59.65200 | 17.93022 | 111 ft | 0 kts | 70° |
| 2026-05-06 11:38 | 59.65194 | 17.92991 | 110 ft | 3 kts | 70° |
| 2026-05-06 11:38 | 59.65190 | 17.92953 | 111 ft | 4 kts | 111° |
| 2026-05-06 11:38 | 59.65203 | 17.92907 | 109 ft | 4 kts | 116° |
| 2026-05-06 11:39 | 59.65211 | 17.92867 | 109 ft | 4 kts | 109° |
| 2026-05-06 11:39 | 59.65218 | 17.92827 | 110 ft | 3 kts | 109° |
| 2026-05-06 11:39 | 59.65227 | 17.92777 | 111 ft | 4 kts | 109° |
| 2026-05-06 11:39 | 59.65233 | 17.92740 | 110 ft | 0 kts | 109° |
| 2026-05-06 11:42 | 59.65232 | 17.92748 | 110 ft | 2 kts | 104° |
| 2026-05-06 11:42 | 59.65239 | 17.92780 | 111 ft | 3 kts | 51° |
| 2026-05-06 11:42 | 59.65267 | 17.92796 | 112 ft | 5 kts | 358° |
| 2026-05-06 11:43 | 59.65307 | 17.92759 | 112 ft | 7 kts | 329° |
| 2026-05-06 11:43 | 59.65360 | 17.92705 | 112 ft | 9 kts | 332° |
| 2026-05-06 11:43 | 59.65425 | 17.92635 | 110 ft | 13 kts | 331° |
| 2026-05-06 11:44 | 59.65663 | 17.92463 | 102 ft | 22 kts | 345° |
| 2026-05-06 11:44 | 59.65798 | 17.92434 | 105 ft | 19 kts | 11° |
| 2026-05-06 11:44 | 59.65930 | 17.92482 | 108 ft | 20 kts | 11° |
| 2026-05-06 11:44 | 59.66069 | 17.92533 | 111 ft | 21 kts | 10° |
| 2026-05-06 11:45 | 59.66211 | 17.92583 | 114 ft | 21 kts | 10° |
| 2026-05-06 11:45 | 59.66356 | 17.92636 | 118 ft | 21 kts | 10° |
| 2026-05-06 11:45 | 59.66492 | 17.92637 | 121 ft | 17 kts | 345° |
| 2026-05-06 11:45 | 59.66593 | 17.92560 | 122 ft | 14 kts | 329° |
| 2026-05-06 11:46 | 59.66597 | 17.92387 | 121 ft | 16 kts | 227° |
| 2026-05-06 11:46 | 59.66478 | 17.92318 | 121 ft | 23 kts | 191° |
| 2026-05-06 11:46 | 59.66129 | 17.92192 | 118 ft | 84 kts | 190° |
| 2026-05-06 11:46 | 59.65362 | 17.91913 | 105 ft | 137 kts | 190° |
| 2026-05-06 11:47 | 59.64318 | 17.91542 | 370 ft | 155 kts | 190° |
| 2026-05-06 11:47 | 59.63254 | 17.91161 | 978 ft | 156 kts | 191° |
| 2026-05-06 11:47 | 59.62179 | 17.90791 | 1592 ft | 158 kts | 189° |
| 2026-05-06 11:47 | 59.61027 | 17.90616 | 1977 ft | 178 kts | 186° |
| 2026-05-06 11:48 | 59.59715 | 17.90485 | 2266 ft | 200 kts | 185° |
| 2026-05-06 11:48 | 59.58272 | 17.90324 | 2816 ft | 212 kts | 185° |
| 2026-05-06 11:48 | 59.56804 | 17.90720 | 3572 ft | 219 kts | 158° |
| 2026-05-06 11:48 | 59.55549 | 17.92436 | 4337 ft | 224 kts | 135° |
| 2026-05-06 11:49 | 59.54531 | 17.94786 | 5128 ft | 227 kts | 126° |
| 2026-05-06 11:49 | 59.53974 | 17.97681 | 5887 ft | 231 kts | 93° |
| 2026-05-06 11:49 | 59.54275 | 18.00829 | 6378 ft | 247 kts | 59° |
| 2026-05-06 11:49 | 59.55457 | 18.03442 | 6730 ft | 268 kts | 40° |
| 2026-05-06 11:50 | 59.56848 | 18.06004 | 7381 ft | 279 kts | 49° |
| 2026-05-06 11:50 | 59.57764 | 18.09401 | 8147 ft | 286 kts | 75° |
| 2026-05-06 11:50 | 59.57847 | 18.13323 | 8917 ft | 291 kts | 102° |
| 2026-05-06 11:50 | 59.57033 | 18.16967 | 9676 ft | 294 kts | 130° |
| 2026-05-06 11:51 | 59.55615 | 18.19898 | 10285 ft | 303 kts | 138° |
| 2026-05-06 11:51 | 59.54051 | 18.22924 | 10500 ft | 326 kts | 138° |
| 2026-05-06 11:51 | 59.52393 | 18.26134 | 10900 ft | 340 kts | 138° |
| 2026-05-06 11:51 | 59.50692 | 18.29443 | 11531 ft | 347 kts | 138° |
| 2026-05-06 11:52 | 59.48966 | 18.32812 | 12177 ft | 353 kts | 138° |
| 2026-05-06 11:52 | 59.47210 | 18.36240 | 12809 ft | 358 kts | 139° |
| 2026-05-06 11:52 | 59.45424 | 18.39721 | 13447 ft | 364 kts | 139° |
| 2026-05-06 11:52 | 59.43615 | 18.43244 | 14049 ft | 368 kts | 139° |
| 2026-05-06 11:53 | 59.41786 | 18.46793 | 14691 ft | 370 kts | 139° |
| 2026-05-06 11:53 | 59.39947 | 18.50357 | 15327 ft | 373 kts | 140° |
| 2026-05-06 11:53 | 59.38117 | 18.53899 | 15932 ft | 376 kts | 140° |
| 2026-05-06 11:53 | 59.36246 | 18.57513 | 16518 ft | 379 kts | 140° |
| 2026-05-06 11:54 | 59.34359 | 18.61145 | 17134 ft | 382 kts | 141° |
| 2026-05-06 11:54 | 59.32452 | 18.64811 | 17755 ft | 385 kts | 141° |
| 2026-05-06 11:54 | 59.30530 | 18.68497 | 18357 ft | 389 kts | 142° |
| 2026-05-06 11:54 | 59.28591 | 18.72212 | 18891 ft | 392 kts | 142° |
| 2026-05-06 11:55 | 59.26634 | 18.75955 | 19426 ft | 395 kts | 142° |
| 2026-05-06 11:55 | 59.24662 | 18.79729 | 19962 ft | 399 kts | 143° |
| 2026-05-06 11:55 | 59.22670 | 18.83536 | 20498 ft | 402 kts | 143° |
| 2026-05-06 11:55 | 59.20658 | 18.87373 | 21015 ft | 406 kts | 143° |
| 2026-05-06 11:56 | 59.18630 | 18.91231 | 21524 ft | 409 kts | 144° |
| 2026-05-06 11:56 | 59.16580 | 18.95124 | 22027 ft | 413 kts | 144° |
| 2026-05-06 11:56 | 59.14514 | 18.99041 | 22526 ft | 416 kts | 144° |
| 2026-05-06 11:56 | 59.12427 | 19.02992 | 23040 ft | 420 kts | 144° |
| 2026-05-06 11:57 | 59.10323 | 19.06962 | 23537 ft | 423 kts | 145° |
| 2026-05-06 11:57 | 59.08200 | 19.10956 | 23962 ft | 426 kts | 145° |
| 2026-05-06 11:57 | 59.06060 | 19.14971 | 24391 ft | 428 kts | 145° |
| 2026-05-06 11:57 | 59.03914 | 19.18998 | 24830 ft | 430 kts | 146° |
| 2026-05-06 11:58 | 59.01763 | 19.23037 | 25263 ft | 430 kts | 145° |
| 2026-05-06 11:58 | 58.99530 | 19.26826 | 25727 ft | 422 kts | 153° |
| 2026-05-06 11:58 | 58.97110 | 19.29941 | 26177 ft | 416 kts | 158° |
| 2026-05-06 11:58 | 58.94658 | 19.32922 | 26609 ft | 417 kts | 158° |
| 2026-05-06 11:59 | 58.92200 | 19.35900 | 27028 ft | 418 kts | 158° |
| 2026-05-06 11:59 | 58.89763 | 19.38847 | 27393 ft | 419 kts | 158° |
| 2026-05-06 11:59 | 58.87289 | 19.41840 | 27799 ft | 420 kts | 158° |
| 2026-05-06 11:59 | 58.84809 | 19.44845 | 28202 ft | 421 kts | 158° |
| 2026-05-06 12:00 | 58.82324 | 19.47856 | 28603 ft | 423 kts | 158° |
| 2026-05-06 12:00 | 58.79828 | 19.50877 | 28995 ft | 424 kts | 158° |
| 2026-05-06 12:00 | 58.77327 | 19.53898 | 29385 ft | 425 kts | 158° |
| 2026-05-06 12:00 | 58.74819 | 19.56917 | 29772 ft | 426 kts | 158° |
| 2026-05-06 12:01 | 58.72298 | 19.59947 | 30146 ft | 428 kts | 158° |
| 2026-05-06 12:01 | 58.69771 | 19.62982 | 30461 ft | 429 kts | 159° |
| 2026-05-06 12:01 | 58.67233 | 19.66020 | 30784 ft | 430 kts | 159° |
| 2026-05-06 12:01 | 58.64704 | 19.69047 | 31198 ft | 427 kts | 158° |
| 2026-05-06 12:02 | 58.62188 | 19.72059 | 31700 ft | 424 kts | 158° |
| 2026-05-06 12:02 | 58.59691 | 19.75041 | 32175 ft | 422 kts | 158° |
| 2026-05-06 12:02 | 58.57202 | 19.78002 | 32598 ft | 420 kts | 158° |
| 2026-05-06 12:02 | 58.54720 | 19.80945 | 33003 ft | 419 kts | 158° |
| 2026-05-06 12:03 | 58.52240 | 19.83879 | 33415 ft | 419 kts | 158° |
| 2026-05-06 12:03 | 58.49762 | 19.86805 | 33834 ft | 418 kts | 158° |
| 2026-05-06 12:03 | 58.47288 | 19.89722 | 34218 ft | 417 kts | 158° |
| 2026-05-06 12:03 | 58.44819 | 19.92633 | 34515 ft | 418 kts | 158° |
| 2026-05-06 12:04 | 58.42342 | 19.95551 | 34771 ft | 419 kts | 158° |
| 2026-05-06 12:04 | 58.39856 | 19.98475 | 34980 ft | 421 kts | 158° |
| 2026-05-06 12:04 | 58.34852 | 20.04347 | 35041 ft | 423 kts | 158° |
| 2026-05-06 12:05 | 58.29841 | 20.10203 | 35007 ft | 423 kts | 158° |
| 2026-05-06 12:05 | 58.24848 | 20.16026 | 35040 ft | 420 kts | 157° |
| 2026-05-06 12:06 | 58.19887 | 20.21775 | 35036 ft | 422 kts | 157° |
| 2026-05-06 12:06 | 58.14882 | 20.27574 | 35041 ft | 422 kts | 157° |
| 2026-05-06 12:07 | 58.09864 | 20.33355 | 35035 ft | 422 kts | 157° |
| 2026-05-06 12:07 | 58.04842 | 20.39127 | 35033 ft | 422 kts | 157° |
| 2026-05-06 12:08 | 57.99969 | 20.45467 | 35034 ft | 429 kts | 152° |
| 2026-05-06 12:08 | 57.95198 | 20.52211 | 35036 ft | 429 kts | 152° |
| 2026-05-06 12:09 | 57.90416 | 20.58919 | 34984 ft | 429 kts | 151° |
| 2026-05-06 12:09 | 57.85631 | 20.65602 | 35001 ft | 429 kts | 152° |
| 2026-05-06 12:10 | 57.80836 | 20.72283 | 35011 ft | 429 kts | 152° |
| 2026-05-06 12:10 | 57.76037 | 20.78948 | 35014 ft | 429 kts | 152° |
| 2026-05-06 12:11 | 57.71235 | 20.85596 | 35020 ft | 429 kts | 152° |
| 2026-05-06 12:11 | 57.66429 | 20.92234 | 35027 ft | 429 kts | 152° |
| 2026-05-06 12:12 | 57.61618 | 20.98852 | 35000 ft | 429 kts | 152° |
| 2026-05-06 12:12 | 57.56800 | 21.05447 | 35003 ft | 430 kts | 152° |
| 2026-05-06 12:13 | 57.51982 | 21.12033 | 34990 ft | 429 kts | 151° |
| 2026-05-06 12:13 | 57.47981 | 21.17494 | 35009 ft | 429 kts | 151° |
| 2026-05-06 12:14 | 57.43175 | 21.24036 | 35018 ft | 428 kts | 151° |
| 2026-05-06 12:14 | 57.37583 | 21.31580 | 35022 ft | 427 kts | 152° |
| 2026-05-06 12:15 | 57.33556 | 21.37002 | 34999 ft | 427 kts | 152° |
| 2026-05-06 12:15 | 57.28752 | 21.43460 | 35011 ft | 427 kts | 152° |
| 2026-05-06 12:16 | 57.23947 | 21.49902 | 35014 ft | 427 kts | 152° |
| 2026-05-06 12:16 | 57.19145 | 21.56332 | 34994 ft | 426 kts | 152° |
| 2026-05-06 12:17 | 57.14338 | 21.62731 | 34970 ft | 426 kts | 151° |
| 2026-05-06 12:17 | 57.09529 | 21.69104 | 34982 ft | 426 kts | 151° |
| 2026-05-06 12:18 | 57.04726 | 21.75456 | 34959 ft | 425 kts | 151° |
| 2026-05-06 12:18 | 56.99921 | 21.81793 | 34974 ft | 425 kts | 152° |
| 2026-05-06 12:19 | 56.95148 | 21.88070 | 34987 ft | 425 kts | 152° |
| 2026-05-06 12:19 | 56.90337 | 21.94364 | 34993 ft | 425 kts | 152° |
| 2026-05-06 12:20 | 56.85527 | 22.00648 | 34988 ft | 425 kts | 152° |
| 2026-05-06 12:20 | 56.80715 | 22.06913 | 34992 ft | 425 kts | 152° |
| 2026-05-06 12:21 | 56.75898 | 22.13166 | 34974 ft | 425 kts | 152° |
| 2026-05-06 12:21 | 56.71073 | 22.19393 | 34986 ft | 425 kts | 152° |
| 2026-05-06 12:22 | 56.66244 | 22.25605 | 34982 ft | 425 kts | 152° |
| 2026-05-06 12:22 | 56.61408 | 22.31812 | 34985 ft | 425 kts | 152° |
| 2026-05-06 12:23 | 56.56574 | 22.38013 | 34990 ft | 426 kts | 152° |
| 2026-05-06 12:23 | 56.51740 | 22.44205 | 34993 ft | 426 kts | 152° |
| 2026-05-06 12:24 | 56.46893 | 22.50369 | 34964 ft | 426 kts | 152° |
| 2026-05-06 12:24 | 56.42045 | 22.56512 | 34970 ft | 426 kts | 152° |
| 2026-05-06 12:25 | 56.37199 | 22.62692 | 34963 ft | 427 kts | 150° |
| 2026-05-06 12:25 | 56.32539 | 22.69409 | 34977 ft | 430 kts | 147° |
| 2026-05-06 12:26 | 56.27990 | 22.76424 | 34985 ft | 430 kts | 146° |
| 2026-05-06 12:26 | 56.23414 | 22.83343 | 34982 ft | 429 kts | 147° |
| 2026-05-06 12:27 | 56.18795 | 22.90113 | 34980 ft | 428 kts | 148° |
| 2026-05-06 12:27 | 56.14164 | 22.96852 | 34978 ft | 428 kts | 148° |
| 2026-05-06 12:28 | 56.09540 | 23.03602 | 34974 ft | 428 kts | 148° |
| 2026-05-06 12:28 | 56.04921 | 23.10337 | 34960 ft | 428 kts | 148° |
| 2026-05-06 12:29 | 56.00295 | 23.17055 | 34862 ft | 429 kts | 148° |
| 2026-05-06 12:29 | 55.97994 | 23.20393 | 34606 ft | 423 kts | 147° |
| 2026-05-06 12:29 | 55.95722 | 23.23684 | 34350 ft | 419 kts | 148° |
| 2026-05-06 12:30 | 55.93463 | 23.26947 | 34093 ft | 417 kts | 148° |
| 2026-05-06 12:30 | 55.91208 | 23.30194 | 33845 ft | 416 kts | 148° |
| 2026-05-06 12:30 | 55.88964 | 23.33421 | 33564 ft | 414 kts | 148° |
| 2026-05-06 12:30 | 55.86729 | 23.36630 | 33288 ft | 412 kts | 148° |
| 2026-05-06 12:31 | 55.84505 | 23.39820 | 33015 ft | 410 kts | 148° |
| 2026-05-06 12:31 | 55.82285 | 23.43001 | 32745 ft | 409 kts | 148° |
| 2026-05-06 12:31 | 55.80079 | 23.46161 | 32495 ft | 406 kts | 148° |
| 2026-05-06 12:31 | 55.77894 | 23.49291 | 32076 ft | 402 kts | 148° |
| 2026-05-06 12:32 | 55.75725 | 23.52390 | 31620 ft | 399 kts | 148° |
| 2026-05-06 12:32 | 55.73571 | 23.55457 | 31173 ft | 396 kts | 148° |
| 2026-05-06 12:32 | 55.71427 | 23.58502 | 30736 ft | 394 kts | 148° |
| 2026-05-06 12:32 | 55.69293 | 23.61527 | 30278 ft | 392 kts | 148° |
| 2026-05-06 12:33 | 55.67169 | 23.64533 | 29848 ft | 390 kts | 148° |
| 2026-05-06 12:33 | 55.65054 | 23.67524 | 29419 ft | 388 kts | 148° |
| 2026-05-06 12:33 | 55.62955 | 23.70496 | 28996 ft | 385 kts | 148° |
| 2026-05-06 12:33 | 55.60867 | 23.73452 | 28592 ft | 383 kts | 148° |
| 2026-05-06 12:34 | 55.58794 | 23.76379 | 28185 ft | 380 kts | 148° |
| 2026-05-06 12:34 | 55.56734 | 23.79286 | 27793 ft | 378 kts | 148° |
| 2026-05-06 12:34 | 55.54685 | 23.82168 | 27408 ft | 376 kts | 148° |
| 2026-05-06 12:34 | 55.52640 | 23.85039 | 27016 ft | 374 kts | 148° |
| 2026-05-06 12:35 | 55.50606 | 23.87890 | 26628 ft | 372 kts | 148° |
| 2026-05-06 12:35 | 55.48582 | 23.90723 | 26250 ft | 371 kts | 148° |
| 2026-05-06 12:35 | 55.46569 | 23.93541 | 25868 ft | 369 kts | 148° |
| 2026-05-06 12:35 | 55.44564 | 23.96342 | 25469 ft | 367 kts | 148° |
| 2026-05-06 12:36 | 55.42565 | 23.99128 | 25045 ft | 365 kts | 148° |
| 2026-05-06 12:36 | 55.40580 | 24.01890 | 24665 ft | 363 kts | 148° |
| 2026-05-06 12:36 | 55.38600 | 24.04642 | 24254 ft | 362 kts | 148° |
| 2026-05-06 12:36 | 55.36623 | 24.07388 | 23845 ft | 361 kts | 148° |
| 2026-05-06 12:37 | 55.34697 | 24.10064 | 23431 ft | 361 kts | 148° |
| 2026-05-06 12:37 | 55.32685 | 24.12855 | 22946 ft | 359 kts | 148° |
| 2026-05-06 12:37 | 55.30731 | 24.15560 | 22522 ft | 356 kts | 148° |
| 2026-05-06 12:37 | 55.28818 | 24.18204 | 22104 ft | 354 kts | 148° |
| 2026-05-06 12:38 | 55.26869 | 24.20897 | 21674 ft | 351 kts | 148° |
| 2026-05-06 12:38 | 55.24982 | 24.23502 | 21262 ft | 349 kts | 148° |
| 2026-05-06 12:38 | 55.23083 | 24.26120 | 20845 ft | 346 kts | 148° |
| 2026-05-06 12:38 | 55.21194 | 24.28716 | 20429 ft | 344 kts | 148° |
| 2026-05-06 12:39 | 55.19314 | 24.31294 | 20012 ft | 342 kts | 148° |
| 2026-05-06 12:39 | 55.17447 | 24.33852 | 19576 ft | 340 kts | 148° |
| 2026-05-06 12:39 | 55.15588 | 24.36398 | 19183 ft | 338 kts | 148° |
| 2026-05-06 12:39 | 55.13741 | 24.38923 | 18787 ft | 337 kts | 148° |
| 2026-05-06 12:40 | 55.11899 | 24.41436 | 18366 ft | 335 kts | 148° |
| 2026-05-06 12:40 | 55.10062 | 24.43941 | 17931 ft | 334 kts | 148° |
| 2026-05-06 12:40 | 55.08238 | 24.46431 | 17514 ft | 332 kts | 148° |
| 2026-05-06 12:40 | 55.06430 | 24.48901 | 17107 ft | 329 kts | 148° |
| 2026-05-06 12:41 | 55.04636 | 24.51350 | 16707 ft | 326 kts | 148° |
| 2026-05-06 12:41 | 55.02877 | 24.53750 | 16319 ft | 324 kts | 148° |
| 2026-05-06 12:41 | 55.01087 | 24.56179 | 15911 ft | 321 kts | 148° |
| 2026-05-06 12:41 | 54.99325 | 24.58563 | 15526 ft | 319 kts | 148° |
| 2026-05-06 12:42 | 54.97576 | 24.60926 | 15137 ft | 318 kts | 148° |
| 2026-05-06 12:42 | 54.95837 | 24.63277 | 14751 ft | 316 kts | 148° |
| 2026-05-06 12:42 | 54.94106 | 24.65614 | 14357 ft | 314 kts | 147° |
| 2026-05-06 12:42 | 54.92517 | 24.68245 | 13959 ft | 319 kts | 135° |
| 2026-05-06 12:43 | 54.91278 | 24.71488 | 13525 ft | 324 kts | 126° |
| 2026-05-06 12:43 | 54.90148 | 24.74859 | 13098 ft | 322 kts | 126° |
| 2026-05-06 12:43 | 54.89018 | 24.78206 | 12697 ft | 320 kts | 126° |
| 2026-05-06 12:43 | 54.87888 | 24.81530 | 12287 ft | 319 kts | 126° |
| 2026-05-06 12:44 | 54.86766 | 24.84829 | 11891 ft | 317 kts | 126° |
| 2026-05-06 12:44 | 54.85663 | 24.88074 | 11733 ft | 307 kts | 127° |
| 2026-05-06 12:44 | 54.84362 | 24.90830 | 11448 ft | 294 kts | 144° |
| 2026-05-06 12:44 | 54.82692 | 24.92739 | 11042 ft | 283 kts | 160° |
| 2026-05-06 12:45 | 54.80845 | 24.93696 | 10551 ft | 275 kts | 176° |
| 2026-05-06 12:45 | 54.78941 | 24.93843 | 10166 ft | 273 kts | 182° |
| 2026-05-06 12:45 | 54.75148 | 24.93956 | 9441 ft | 272 kts | 181° |
| 2026-05-06 12:46 | 54.73266 | 24.94030 | 9105 ft | 270 kts | 181° |
| 2026-05-06 12:46 | 54.71392 | 24.94102 | 8761 ft | 268 kts | 182° |
| 2026-05-06 12:46 | 54.69527 | 24.94169 | 8398 ft | 267 kts | 182° |
| 2026-05-06 12:46 | 54.67672 | 24.94233 | 8022 ft | 268 kts | 182° |
| 2026-05-06 12:47 | 54.65822 | 24.94295 | 7687 ft | 266 kts | 182° |
| 2026-05-06 12:47 | 54.63977 | 24.94357 | 7399 ft | 263 kts | 182° |
| 2026-05-06 12:47 | 54.62177 | 24.94420 | 7261 ft | 254 kts | 182° |
| 2026-05-06 12:47 | 54.60437 | 24.94481 | 7138 ft | 246 kts | 181° |
| 2026-05-06 12:48 | 54.58765 | 24.94882 | 6976 ft | 243 kts | 166° |
| 2026-05-06 12:48 | 54.57248 | 24.96139 | 6635 ft | 243 kts | 153° |
| 2026-05-06 12:48 | 54.55809 | 24.97686 | 6322 ft | 244 kts | 153° |
| 2026-05-06 12:48 | 54.54359 | 24.99230 | 5984 ft | 245 kts | 153° |
| 2026-05-06 12:49 | 54.52907 | 25.00771 | 5658 ft | 245 kts | 153° |
| 2026-05-06 12:49 | 54.51459 | 25.02309 | 5382 ft | 243 kts | 153° |
| 2026-05-06 12:49 | 54.50015 | 25.03839 | 5061 ft | 242 kts | 153° |
| 2026-05-06 12:49 | 54.48682 | 25.05621 | 4737 ft | 247 kts | 136° |
| 2026-05-06 12:50 | 54.47744 | 25.08130 | 4362 ft | 256 kts | 118° |
| 2026-05-06 12:50 | 54.47332 | 25.11203 | 3904 ft | 269 kts | 94° |
| 2026-05-06 12:50 | 54.47607 | 25.14348 | 3735 ft | 266 kts | 73° |
| 2026-05-06 12:50 | 54.48500 | 25.17111 | 3517 ft | 266 kts | 53° |
| 2026-05-06 12:51 | 54.49906 | 25.19166 | 3223 ft | 266 kts | 32° |
| 2026-05-06 12:51 | 54.51573 | 25.20409 | 2894 ft | 256 kts | 24° |
| 2026-05-06 12:51 | 54.53155 | 25.21485 | 2566 ft | 233 kts | 25° |
| 2026-05-06 12:51 | 54.54585 | 25.22467 | 2272 ft | 210 kts | 25° |
| 2026-05-06 12:52 | 54.55890 | 25.23367 | 2030 ft | 192 kts | 26° |
| 2026-05-06 12:52 | 54.57070 | 25.24182 | 1757 ft | 175 kts | 26° |
| 2026-05-06 12:52 | 54.58143 | 25.24924 | 1548 ft | 155 kts | 24° |
| 2026-05-06 12:52 | 54.59103 | 25.25587 | 1316 ft | 143 kts | 27° |
| 2026-05-06 12:53 | 54.60006 | 25.26224 | 1119 ft | 138 kts | 27° |
| 2026-05-06 12:53 | 54.60889 | 25.26839 | 947 ft | 137 kts | 26° |
| 2026-05-06 12:53 | 54.61778 | 25.27448 | 735 ft | 139 kts | 25° |
| 2026-05-06 12:53 | 54.62674 | 25.28065 | 615 ft | 136 kts | 22° |
| 2026-05-06 12:54 | 54.63424 | 25.28585 | 620 ft | 93 kts | 22° |
| 2026-05-06 12:54 | 54.63738 | 25.28760 | 631 ft | 25 kts | 354° |
| 2026-05-06 12:54 | 54.63900 | 25.28734 | 640 ft | 18 kts | 354° |
| 2026-05-06 12:54 | 54.63988 | 25.28719 | 641 ft | 12 kts | 354° |
| 2026-05-06 12:55 | 54.64070 | 25.28706 | 647 ft | 11 kts | 354° |
| 2026-05-06 12:55 | 54.64148 | 25.28693 | 647 ft | 11 kts | 355° |
| 2026-05-06 12:55 | 54.64228 | 25.28680 | 649 ft | 12 kts | 354° |
| 2026-05-06 12:55 | 54.64313 | 25.28665 | 650 ft | 12 kts | 355° |
| 2026-05-06 12:56 | 54.64393 | 25.28644 | 651 ft | 6 kts | 342° |
| 2026-05-06 12:56 | 54.64407 | 25.28559 | 647 ft | 11 kts | 269° |
| 2026-05-06 12:56 | 54.64405 | 25.28448 | 642 ft | 6 kts | 268° |
| 2026-05-06 12:56 | 54.64405 | 25.28432 | 642 ft | 0 kts | 268° |
| 2026-05-06 12:57 | 54.64403 | 25.28405 | 640 ft | 6 kts | 265° |
| 2026-05-06 12:57 | 54.64412 | 25.28340 | 640 ft | 5 kts | 294° |
| 2026-05-06 12:57 | 54.64423 | 25.28265 | 637 ft | 4 kts | 257° |
| 2026-05-06 12:58 | 54.64415 | 25.28242 | 637 ft | 4 kts | 234° |
| 2026-05-06 12:58 | 54.64398 | 25.28208 | 639 ft | 2 kts | 228° |
| 2026-05-06 12:58 | 54.64389 | 25.28192 | 637 ft | 1 kts | 227° |
| 2026-05-06 12:58 | 54.64388 | 25.28188 | 643 ft | 0 kts | 227° |